createdAt,value
2023-06-22T00:01:00.023Z,99953.66
2023-06-22T00:02:03.307Z,99942.66
2023-06-22T00:03:05.239Z,99941.75
2023-06-22T00:04:07.219Z,99944.84
2023-06-22T00:05:09.111Z,99924.31
2023-06-22T00:06:10.984Z,99902.13
2023-06-22T00:07:13.180Z,99886.03
2023-06-22T00:08:15.610Z,99869.91
2023-06-22T00:09:17.517Z,99849.37
2023-06-22T00:10:19.377Z,99861.69
2023-06-22T00:11:21.367Z,99875.03
2023-06-22T00:12:23.587Z,99891.50
2023-06-22T00:13:25.458Z,99902.34
2023-06-22T00:14:27.325Z,99913.16
2023-06-22T00:15:29.740Z,99911.84
2023-06-22T00:16:34.197Z,99913.66
2023-06-22T00:17:36.419Z,99918.50
2023-06-22T00:18:38.296Z,99915.25
2023-06-22T00:19:41.630Z,99923.75
2023-06-22T00:20:43.689Z,99935.59
2023-06-22T00:21:48.154Z,99926.91
2023-06-22T00:22:50.470Z,99939.13
2023-06-22T00:23:52.962Z,99943.09
2023-06-22T00:24:56.585Z,99942.63
2023-06-22T00:25:58.448Z,99945.66
2023-06-22T00:27:00.319Z,99934.91
2023-06-22T00:28:03.976Z,99934.91
2023-06-22T00:29:05.815Z,99940.81
2023-06-22T00:30:08.337Z,99929.22
2023-06-22T00:31:10.499Z,99920.56
2023-06-22T00:32:12.370Z,99918.53
2023-06-22T00:33:14.581Z,99915.53
2023-06-22T00:34:17.122Z,99916.94
2023-06-22T00:35:19.756Z,99916.47
2023-06-22T00:36:21.632Z,99918.56
2023-06-22T00:37:26.571Z,99919.53
2023-06-22T00:38:28.884Z,99926.88
2023-06-22T00:39:30.753Z,99923.50
2023-06-22T00:40:33.627Z,99923.44
2023-06-22T00:41:35.765Z,99928.84
2023-06-22T00:42:40.206Z,99930.97
2023-06-22T00:43:43.477Z,99934.66
2023-06-22T00:44:46.037Z,99929.47
2023-06-22T00:45:48.363Z,99927.47
2023-06-22T00:46:53.511Z,99930.13
2023-06-22T00:47:58.275Z,99931.06
2023-06-22T00:49:01.016Z,99926.97
2023-06-22T00:50:04.830Z,99937.47
2023-06-22T00:51:07.074Z,99934.22
2023-06-22T00:52:14.812Z,99928.66
2023-06-22T00:53:19.171Z,99926.75
2023-06-22T00:54:25.784Z,99925.00
2023-06-22T00:55:29.437Z,99932.78
2023-06-22T00:56:31.559Z,99927.69
2023-06-22T00:57:33.477Z,99934.09
2023-06-22T00:58:36.736Z,99925.78
2023-06-22T00:59:40.369Z,99940.78
2023-06-22T01:00:42.900Z,99936.72
2023-06-22T01:01:45.802Z,99937.50
2023-06-22T01:02:52.453Z,99935.00
2023-06-22T01:03:57.829Z,99925.78
2023-06-22T01:05:00.167Z,99930.72
2023-06-22T01:06:11.574Z,99926.97
2023-06-22T01:07:32.210Z,99928.66
2023-06-22T01:08:52.753Z,99924.63
2023-06-22T01:10:26.834Z,99927.66
2023-06-22T01:11:46.784Z,99932.34
2023-06-22T01:13:03.802Z,99936.91
2023-06-22T01:14:16.843Z,99939.81
2023-06-22T01:15:32.072Z,99934.91
2023-06-22T01:16:36.623Z,99937.09
2023-06-22T01:17:42.452Z,99939.91
2023-06-22T01:18:48.241Z,99934.56
2023-06-22T01:19:57.225Z,99928.22
2023-06-22T01:21:01.905Z,99938.84
2023-06-22T01:22:12.781Z,99939.00
2023-06-22T01:23:36.601Z,99937.16
2023-06-22T01:25:09.509Z,99937.69
2023-06-22T01:26:19.905Z,99939.50
2023-06-22T01:27:46.773Z,99934.50
2023-06-22T01:28:53.870Z,99940.16
2023-06-22T01:30:01.476Z,99943.59
2023-06-22T01:31:06.852Z,99941.09
2023-06-22T01:32:12.428Z,99943.56
2023-06-22T01:33:16.307Z,99953.66
2023-06-22T01:34:19.002Z,99949.66
2023-06-22T01:35:22.550Z,99943.00
2023-06-22T01:36:26.511Z,99946.31
2023-06-22T01:37:33.417Z,99946.47
2023-06-22T01:38:37.662Z,99945.41
2023-06-22T01:39:40.446Z,99944.03
2023-06-22T01:40:42.793Z,99951.69
2023-06-22T01:41:45.612Z,99946.69
2023-06-22T01:42:52.014Z,99945.00
2023-06-22T01:43:56.214Z,99948.75
2023-06-22T01:44:59.157Z,99949.34
2023-06-22T01:46:04.869Z,99940.91
2023-06-22T01:47:08.181Z,99952.16
2023-06-22T01:48:12.079Z,99943.06
2023-06-22T01:49:14.534Z,99943.25
2023-06-22T01:50:16.727Z,99936.06
2023-06-22T01:51:18.800Z,99930.75
2023-06-22T01:52:22.229Z,99927.09
2023-06-22T01:53:25.780Z,99933.72
2023-06-22T01:54:28.024Z,99934.56
2023-06-22T01:55:29.862Z,99926.00
2023-06-22T01:56:31.904Z,99934.50
2023-06-22T01:57:33.797Z,99927.38
2023-06-22T01:58:41.421Z,99929.31
2023-06-22T01:59:46.198Z,99932.53
2023-06-22T02:00:57.299Z,99927.78
2023-06-22T02:02:07.360Z,99925.91
2023-06-22T02:03:25.930Z,99923.31
2023-06-22T02:04:35.379Z,99921.00
2023-06-22T02:05:46.207Z,99922.84
2023-06-22T02:06:52.483Z,99914.63
2023-06-22T02:08:06.335Z,99928.97
2023-06-22T02:09:12.845Z,99930.28
2023-06-22T02:10:21.039Z,99935.81
2023-06-22T02:11:24.197Z,99933.41
2023-06-22T02:12:28.961Z,99944.84
2023-06-22T02:13:32.063Z,99938.41
2023-06-22T02:14:35.699Z,99942.38
2023-06-22T02:15:38.383Z,99938.59
2023-06-22T02:16:43.022Z,99948.37
2023-06-22T02:17:46.075Z,99946.34
2023-06-22T02:18:51.801Z,99948.19
2023-06-22T02:19:53.698Z,99953.56
2023-06-22T02:20:55.700Z,99952.94
2023-06-22T02:21:58.099Z,99952.75
2023-06-22T02:22:59.978Z,99952.38
2023-06-22T02:24:01.896Z,99948.91
2023-06-22T02:25:05.394Z,99951.66
2023-06-22T02:26:07.278Z,99950.41
2023-06-22T02:27:09.507Z,99944.19
2023-06-22T02:28:11.793Z,99943.97
2023-06-22T02:29:13.722Z,99940.50
2023-06-22T02:30:36.989Z,99935.34
2023-06-22T02:31:38.937Z,99940.09
2023-06-22T02:32:43.035Z,99945.22
2023-06-22T02:33:46.956Z,99947.19
2023-06-22T02:34:49.068Z,99946.34
2023-06-22T02:35:51.679Z,99943.19
2023-06-22T02:36:53.613Z,99943.28
2023-06-22T02:37:55.822Z,99948.13
2023-06-22T02:38:59.993Z,99953.66
2023-06-22T02:40:02.261Z,99953.66
2023-06-22T02:41:04.770Z,99953.91
2023-06-22T02:42:06.846Z,99946.25
2023-06-22T02:43:08.987Z,99940.09
2023-06-22T02:44:10.866Z,99950.63
2023-06-22T02:45:12.686Z,99949.50
2023-06-22T02:46:15.149Z,99947.28
2023-06-22T02:47:17.389Z,99959.00
2023-06-22T02:48:19.587Z,99960.81
2023-06-22T02:49:21.425Z,99965.34
2023-06-22T02:50:23.498Z,99966.66
2023-06-22T02:51:25.587Z,99966.19
2023-06-22T02:52:27.492Z,99966.12
2023-06-22T02:53:29.609Z,99964.69
2023-06-22T02:54:31.613Z,99957.53
2023-06-22T02:55:33.476Z,99963.75
2023-06-22T02:56:37.592Z,99963.47
2023-06-22T02:57:44.738Z,99966.38
2023-06-22T02:58:46.925Z,99963.87
2023-06-22T02:59:48.811Z,99958.25
2023-06-22T03:00:54.148Z,99961.41
2023-06-22T03:01:57.012Z,99958.94
2023-06-22T03:02:59.687Z,99968.28
2023-06-22T03:04:02.165Z,99966.44
2023-06-22T03:05:05.133Z,99968.84
2023-06-22T03:06:07.176Z,99962.53
2023-06-22T03:07:09.148Z,99956.16
2023-06-22T03:08:11.422Z,99963.09
2023-06-22T03:09:13.667Z,99958.88
2023-06-22T03:10:16.609Z,99957.97
2023-06-22T03:11:18.813Z,99965.34
2023-06-22T03:12:20.838Z,99961.38
2023-06-22T03:13:23.386Z,99966.66
2023-06-22T03:14:25.715Z,99967.47
2023-06-22T03:15:30.542Z,99958.50
2023-06-22T03:16:34.115Z,99968.06
2023-06-22T03:17:37.568Z,99966.75
2023-06-22T03:18:39.710Z,99969.59
2023-06-22T03:19:41.835Z,99969.59
2023-06-22T03:20:43.847Z,99965.19
2023-06-22T03:21:45.757Z,99964.59
2023-06-22T03:22:47.709Z,99970.50
2023-06-22T03:23:49.862Z,99967.81
2023-06-22T03:24:52.223Z,99965.63
2023-06-22T03:25:56.749Z,99966.41
2023-06-22T03:26:58.784Z,99963.94
2023-06-22T03:28:01.565Z,99967.62
2023-06-22T03:29:04.230Z,99964.47
2023-06-22T03:30:08.549Z,99963.31
2023-06-22T03:31:10.547Z,99960.97
2023-06-22T03:32:13.965Z,99969.16
2023-06-22T03:33:15.877Z,99965.56
2023-06-22T03:34:17.720Z,99968.56
2023-06-22T03:35:19.854Z,99963.53
2023-06-22T03:36:21.920Z,99961.69
2023-06-22T03:37:23.794Z,99961.94
2023-06-22T03:38:26.220Z,99965.63
2023-06-22T03:39:28.491Z,99956.53
2023-06-22T03:40:31.055Z,99957.59
2023-06-22T03:41:33.102Z,99957.31
2023-06-22T03:42:38.512Z,99949.78
2023-06-22T03:43:40.644Z,99960.38
2023-06-22T03:44:42.503Z,99958.81
2023-06-22T03:45:46.507Z,99956.72
2023-06-22T03:46:48.591Z,99954.06
2023-06-22T03:47:50.558Z,99957.63
2023-06-22T03:48:52.430Z,99956.63
2023-06-22T03:49:56.079Z,99961.03
2023-06-22T03:50:59.923Z,99961.88
2023-06-22T03:52:06.371Z,99964.75
2023-06-22T03:53:08.257Z,99955.47
2023-06-22T03:54:10.110Z,99960.91
2023-06-22T03:55:12.019Z,99959.88
2023-06-22T03:56:14.222Z,99965.75
2023-06-22T03:57:16.163Z,99959.56
2023-06-22T03:58:20.018Z,99957.09
2023-06-22T03:59:21.937Z,99959.12
2023-06-22T04:00:27.217Z,99954.97
2023-06-22T04:01:29.617Z,99965.72
2023-06-22T04:02:31.492Z,99964.03
2023-06-22T04:03:33.447Z,99966.69
2023-06-22T04:04:36.401Z,99958.19
2023-06-22T04:05:39.837Z,99961.94
2023-06-22T04:06:42.025Z,99961.91
2023-06-22T04:07:44.045Z,99970.00
2023-06-22T04:08:49.358Z,99975.50
2023-06-22T04:09:51.349Z,99966.31
2023-06-22T04:10:53.207Z,99967.91
2023-06-22T04:11:55.356Z,99968.97
2023-06-22T04:12:57.454Z,99973.62
2023-06-22T04:13:59.353Z,99979.28
2023-06-22T04:15:01.279Z,99969.69
2023-06-22T04:16:03.116Z,99978.31
2023-06-22T04:17:05.635Z,99975.59
2023-06-22T04:18:07.559Z,99976.97
2023-06-22T04:19:15.109Z,99980.25
2023-06-22T04:20:17.401Z,99979.03
2023-06-22T04:21:20.715Z,99972.19
2023-06-22T04:22:22.870Z,99979.13
2023-06-22T04:23:24.714Z,99972.38
2023-06-22T04:24:26.550Z,99974.91
2023-06-22T04:25:28.465Z,99970.56
2023-06-22T04:26:30.318Z,99972.88
2023-06-22T04:27:32.475Z,99972.81
2023-06-22T04:28:37.161Z,99974.44
2023-06-22T04:29:39.306Z,99975.88
2023-06-22T04:30:47.316Z,99975.03
2023-06-22T04:31:52.466Z,99964.44
2023-06-22T04:32:58.933Z,99965.56
2023-06-22T04:34:07.100Z,99976.16
2023-06-22T04:35:09.413Z,99973.72
2023-06-22T04:36:14.458Z,99971.16
2023-06-22T04:37:16.985Z,99977.22
2023-06-22T04:38:19.186Z,99983.34
2023-06-22T04:39:21.385Z,99978.53
2023-06-22T04:40:24.385Z,99978.53
2023-06-22T04:41:26.602Z,99983.34
2023-06-22T04:42:28.507Z,99984.97
2023-06-22T04:43:31.596Z,99993.75
2023-06-22T04:44:33.654Z,99991.53
2023-06-22T04:45:38.826Z,99985.28
2023-06-22T04:46:41.375Z,99995.16
2023-06-22T04:47:43.325Z,99982.25
2023-06-22T04:48:45.508Z,99975.16
2023-06-22T04:49:47.540Z,99979.56
2023-06-22T04:50:49.464Z,99976.63
2023-06-22T04:51:52.953Z,99976.38
2023-06-22T04:52:54.926Z,99972.66
2023-06-22T04:54:01.731Z,99975.25
2023-06-22T04:55:04.828Z,99972.84
2023-06-22T04:56:06.718Z,99981.94
2023-06-22T04:57:11.789Z,99973.09
2023-06-22T04:58:14.201Z,99976.66
2023-06-22T04:59:16.389Z,99981.44
2023-06-22T05:00:24.397Z,99982.31
2023-06-22T05:01:26.489Z,99980.84
2023-06-22T05:02:29.060Z,99986.03
2023-06-22T05:03:31.381Z,99981.13
2023-06-22T05:04:34.479Z,99979.75
2023-06-22T05:05:36.774Z,99986.22
2023-06-22T05:06:40.849Z,99989.31
2023-06-22T05:07:49.276Z,99985.03
2023-06-22T05:08:53.417Z,99986.97
2023-06-22T05:09:55.588Z,99986.06
2023-06-22T05:11:05.055Z,99985.09
2023-06-22T05:12:10.814Z,99981.53
2023-06-22T05:13:13.448Z,99986.78
2023-06-22T05:14:15.345Z,99980.66
2023-06-22T05:15:17.623Z,99984.44
2023-06-22T05:16:25.186Z,99981.88
2023-06-22T05:17:27.229Z,99988.78
2023-06-22T05:18:30.632Z,99990.19
2023-06-22T05:19:34.802Z,99991.38
2023-06-22T05:20:37.528Z,99996.91
2023-06-22T05:21:39.875Z,99996.13
2023-06-22T05:22:42.162Z,99994.53
2023-06-22T05:23:44.122Z,99999.69
2023-06-22T05:24:45.958Z,99997.41
2023-06-22T05:25:48.160Z,99989.97
2023-06-22T05:26:50.009Z,99996.28
2023-06-22T05:27:52.961Z,100000.94
2023-06-22T05:28:54.881Z,100005.97
2023-06-22T05:29:56.746Z,100004.78
2023-06-22T05:30:59.003Z,99999.84
2023-06-22T05:32:00.974Z,100005.75
2023-06-22T05:33:02.893Z,100004.13
2023-06-22T05:34:04.729Z,100002.97
2023-06-22T05:35:06.898Z,100008.03
2023-06-22T05:36:09.706Z,100002.84
2023-06-22T05:37:11.687Z,99997.34
2023-06-22T05:38:13.537Z,100009.09
2023-06-22T05:39:16.223Z,100005.38
2023-06-22T05:40:18.156Z,100003.84
2023-06-22T05:41:20.426Z,100010.59
2023-06-22T05:42:22.963Z,100012.53
2023-06-22T05:43:24.817Z,100009.38
2023-06-22T05:44:27.235Z,100012.84
2023-06-22T05:45:29.075Z,100006.09
2023-06-22T05:46:31.344Z,100007.56
2023-06-22T05:47:33.315Z,100009.09
2023-06-22T05:48:35.215Z,100025.06
2023-06-22T05:49:37.076Z,100026.53
2023-06-22T05:50:39.023Z,100031.09
2023-06-22T05:51:42.314Z,100027.81
2023-06-22T05:52:44.191Z,100031.44
2023-06-22T05:53:50.448Z,100033.50
2023-06-22T05:54:52.332Z,100038.00
2023-06-22T05:55:54.323Z,100035.53
2023-06-22T05:56:56.897Z,100036.06
2023-06-22T05:57:58.769Z,100046.87
2023-06-22T05:59:00.677Z,100041.97
2023-06-22T06:00:06.871Z,100051.09
2023-06-22T06:01:09.247Z,100043.87
2023-06-22T06:02:11.169Z,100044.28
2023-06-22T06:03:15.547Z,100046.47
2023-06-22T06:04:19.606Z,100041.38
2023-06-22T06:05:21.593Z,100044.94
2023-06-22T06:06:29.785Z,100044.16
2023-06-22T06:07:31.823Z,100042.47
2023-06-22T06:08:33.953Z,100043.19
2023-06-22T06:09:35.800Z,100048.56
2023-06-22T06:10:38.164Z,100052.84
2023-06-22T06:11:40.630Z,100047.78
2023-06-22T06:12:42.570Z,100053.87
2023-06-22T06:13:44.448Z,100041.75
2023-06-22T06:14:46.679Z,100047.28
2023-06-22T06:15:48.836Z,100043.81
2023-06-22T06:16:51.086Z,100040.69
2023-06-22T06:17:54.083Z,100045.94
2023-06-22T06:18:57.268Z,100046.28
2023-06-22T06:20:01.528Z,100048.44
2023-06-22T06:21:03.429Z,100052.84
2023-06-22T06:22:05.584Z,100055.88
2023-06-22T06:23:07.463Z,100047.44
2023-06-22T06:24:09.345Z,100057.19
2023-06-22T06:25:11.238Z,100051.31
2023-06-22T06:26:13.117Z,100058.47
2023-06-22T06:27:15.389Z,100056.84
2023-06-22T06:28:18.080Z,100048.38
2023-06-22T06:29:20.001Z,100047.34
2023-06-22T06:30:22.466Z,100057.56
2023-06-22T06:31:24.426Z,100053.97
2023-06-22T06:32:26.699Z,100061.37
2023-06-22T06:33:28.661Z,100058.63
2023-06-22T06:34:30.543Z,100056.59
2023-06-22T06:35:32.537Z,100054.31
2023-06-22T06:36:34.694Z,100053.22
2023-06-22T06:37:38.517Z,100050.00
2023-06-22T06:38:40.380Z,100050.94
2023-06-22T06:39:43.289Z,100054.47
2023-06-22T06:40:46.598Z,100048.81
2023-06-22T06:41:48.576Z,100051.38
2023-06-22T06:42:51.172Z,100056.75
2023-06-22T06:43:53.418Z,100051.09
2023-06-22T06:44:56.360Z,100059.94
2023-06-22T06:45:58.266Z,100053.78
2023-06-22T06:47:00.262Z,100052.66
2023-06-22T06:48:02.597Z,100057.06
2023-06-22T06:49:04.770Z,100063.09
2023-06-22T06:50:08.498Z,100051.09
2023-06-22T06:51:10.603Z,100051.41
2023-06-22T06:52:12.566Z,100055.13
2023-06-22T06:53:14.816Z,100046.34
2023-06-22T06:54:16.730Z,100045.09
2023-06-22T06:55:20.456Z,100037.47
2023-06-22T06:56:22.527Z,100041.25
2023-06-22T06:57:24.411Z,100039.88
2023-06-22T06:58:26.605Z,100041.75
2023-06-22T06:59:29.073Z,100036.03
2023-06-22T07:00:31.664Z,100037.59
2023-06-22T07:01:34.979Z,100045.13
2023-06-22T07:02:37.189Z,100038.41
2023-06-22T07:03:39.705Z,100037.88
2023-06-22T07:04:41.715Z,100053.56
2023-06-22T07:05:43.682Z,100044.69
2023-06-22T07:06:45.659Z,100044.16
2023-06-22T07:07:47.854Z,100045.13
2023-06-22T07:08:50.494Z,100046.66
2023-06-22T07:09:52.462Z,100043.16
2023-06-22T07:10:54.518Z,100043.06
2023-06-22T07:11:56.402Z,100044.50
2023-06-22T07:12:58.396Z,100036.19
2023-06-22T07:14:02.434Z,100035.38
2023-06-22T07:15:11.177Z,100032.03
2023-06-22T07:16:13.092Z,100033.22
2023-06-22T07:17:14.964Z,100035.38
2023-06-22T07:18:16.889Z,100025.00
2023-06-22T07:19:26.864Z,100026.78
2023-06-22T07:20:28.946Z,100022.38
2023-06-22T07:21:31.030Z,100025.78
2023-06-22T07:22:32.922Z,100025.03
2023-06-22T07:23:34.771Z,100031.03
2023-06-22T07:24:38.175Z,100028.47
2023-06-22T07:25:40.070Z,100030.00
2023-06-22T07:26:45.212Z,100031.28
2023-06-22T07:27:58.543Z,100023.87
2023-06-22T07:29:00.620Z,100023.22
2023-06-22T07:30:03.864Z,100027.47
2023-06-22T07:31:05.814Z,100030.06
2023-06-22T07:32:08.019Z,100023.06
2023-06-22T07:33:10.205Z,100020.31
2023-06-22T07:34:12.612Z,100030.22
2023-06-22T07:35:14.994Z,100030.22
2023-06-22T07:36:18.217Z,100030.81
2023-06-22T07:37:20.067Z,100027.78
2023-06-22T07:38:21.912Z,100022.84
2023-06-22T07:39:26.900Z,100017.97
2023-06-22T07:40:29.279Z,100022.94
2023-06-22T07:41:32.329Z,100020.28
2023-06-22T07:42:34.542Z,100023.97
2023-06-22T07:43:38.075Z,100024.63
2023-06-22T07:44:40.007Z,100027.13
2023-06-22T07:45:53.110Z,100017.16
2023-06-22T07:46:55.079Z,100028.97
2023-06-22T07:47:56.990Z,100019.53
2023-06-22T07:48:59.310Z,100026.06
2023-06-22T07:50:02.454Z,100029.88
2023-06-22T07:51:04.758Z,100030.09
2023-06-22T07:52:07.772Z,100036.87
2023-06-22T07:53:09.619Z,100029.19
2023-06-22T07:54:11.597Z,100024.72
2023-06-22T07:55:13.420Z,100026.72
2023-06-22T07:56:20.002Z,100027.31
2023-06-22T07:57:22.205Z,100031.69
2023-06-22T07:58:24.172Z,100025.78
2023-06-22T07:59:26.015Z,100029.16
2023-06-22T08:00:28.558Z,100029.28
2023-06-22T08:01:31.332Z,100021.62
2023-06-22T08:02:33.276Z,100025.75
2023-06-22T08:03:35.333Z,100027.19
2023-06-22T08:04:37.305Z,100024.25
2023-06-22T08:05:39.439Z,100024.94
2023-06-22T08:06:42.774Z,100025.03
2023-06-22T08:07:46.014Z,100025.12
2023-06-22T08:08:50.143Z,100019.38
2023-06-22T08:09:52.075Z,100019.94
2023-06-22T08:10:53.931Z,100019.00
2023-06-22T08:11:57.656Z,100015.62
2023-06-22T08:12:59.877Z,100012.63
2023-06-22T08:14:01.816Z,100011.38
2023-06-22T08:15:04.171Z,100020.88
2023-06-22T08:16:06.362Z,100024.72
2023-06-22T08:17:08.715Z,100018.81
2023-06-22T08:18:10.580Z,100017.72
2023-06-22T08:19:12.660Z,100012.16
2023-06-22T08:20:14.802Z,100013.28
2023-06-22T08:21:16.810Z,100009.06
2023-06-22T08:22:19.563Z,100007.47
2023-06-22T08:23:21.567Z,100008.16
2023-06-22T08:24:23.654Z,100016.06
2023-06-22T08:25:25.548Z,100011.00
2023-06-22T08:26:27.454Z,100010.78
2023-06-22T08:27:30.710Z,100005.22
2023-06-22T08:28:32.654Z,100010.69
2023-06-22T08:29:34.486Z,100010.97
2023-06-22T08:30:36.384Z,100013.25
2023-06-22T08:31:38.569Z,100013.47
2023-06-22T08:32:41.045Z,100009.97
2023-06-22T08:33:48.953Z,100011.00
2023-06-22T08:34:51.743Z,100010.53
2023-06-22T08:35:53.985Z,100005.97
2023-06-22T08:36:55.987Z,100009.84
2023-06-22T08:37:59.150Z,100006.28
2023-06-22T08:39:02.537Z,100003.22
2023-06-22T08:40:07.251Z,100009.91
2023-06-22T08:41:09.364Z,100003.69
2023-06-22T08:42:11.401Z,99998.66
2023-06-22T08:43:13.731Z,99998.63
2023-06-22T08:44:19.165Z,100002.00
2023-06-22T08:45:21.114Z,100000.06
2023-06-22T08:46:25.764Z,100004.91
2023-06-22T08:47:30.345Z,99999.28
2023-06-22T08:48:32.576Z,100001.03
2023-06-22T08:49:34.440Z,99992.59
2023-06-22T08:50:36.335Z,99995.94
2023-06-22T08:51:38.307Z,100000.34
2023-06-22T08:52:44.996Z,100003.47
2023-06-22T08:53:47.380Z,99991.75
2023-06-22T08:54:49.295Z,99989.12
2023-06-22T08:55:52.031Z,99991.94
2023-06-22T08:56:54.128Z,99988.38
2023-06-22T08:57:56.040Z,99993.13
2023-06-22T08:58:58.363Z,99987.97
2023-06-22T09:00:00.701Z,99991.00
2023-06-22T09:01:02.659Z,99988.44
2023-06-22T09:02:04.702Z,99989.91
2023-06-22T09:03:06.816Z,99982.25
2023-06-22T09:04:10.839Z,99976.44
2023-06-22T09:05:13.697Z,99984.63
2023-06-22T09:06:17.474Z,99990.31
2023-06-22T09:07:23.597Z,99985.31
2023-06-22T09:08:25.626Z,99985.72
2023-06-22T09:09:28.242Z,99976.19
2023-06-22T09:10:30.498Z,99985.91
2023-06-22T09:11:32.765Z,99982.88
2023-06-22T09:12:35.007Z,99986.56
2023-06-22T09:13:38.075Z,99985.00
2023-06-22T09:14:40.345Z,99979.59
2023-06-22T09:15:42.294Z,99982.97
2023-06-22T09:16:44.399Z,99980.97
2023-06-22T09:17:47.934Z,99980.63
2023-06-22T09:18:50.293Z,99978.44
2023-06-22T09:19:52.615Z,99973.13
2023-06-22T09:20:54.700Z,99977.25
2023-06-22T09:21:56.715Z,99984.03
2023-06-22T09:22:59.120Z,99973.34
2023-06-22T09:24:01.064Z,99982.91
2023-06-22T09:25:06.975Z,99971.81
2023-06-22T09:26:09.844Z,99973.38
2023-06-22T09:27:11.841Z,99961.88
2023-06-22T09:28:13.752Z,99962.34
2023-06-22T09:29:15.716Z,99971.00
2023-06-22T09:30:17.932Z,99961.31
2023-06-22T09:31:27.478Z,99959.88
2023-06-22T09:32:29.439Z,99968.78
2023-06-22T09:33:31.438Z,99960.97
2023-06-22T09:34:33.284Z,99956.78
2023-06-22T09:35:35.559Z,99964.22
2023-06-22T09:36:37.942Z,99960.12
2023-06-22T09:37:40.281Z,99956.28
2023-06-22T09:38:42.126Z,99962.94
2023-06-22T09:39:44.122Z,99961.69
2023-06-22T09:40:46.297Z,99956.50
2023-06-22T09:41:48.171Z,99955.06
2023-06-22T09:42:50.040Z,99959.53
2023-06-22T09:43:53.479Z,99966.62
2023-06-22T09:44:56.680Z,99959.12
2023-06-22T09:45:58.920Z,99954.13
2023-06-22T09:47:01.209Z,99951.56
2023-06-22T09:48:03.246Z,99947.91
2023-06-22T09:49:05.189Z,99959.66
2023-06-22T09:50:07.615Z,99955.03
2023-06-22T09:51:09.736Z,99956.28
2023-06-22T09:52:12.630Z,99960.34
2023-06-22T09:53:14.454Z,99957.38
2023-06-22T09:54:16.342Z,99952.50
2023-06-22T09:55:18.349Z,99959.12
2023-06-22T09:56:21.204Z,99962.63
2023-06-22T09:57:23.073Z,99960.25
2023-06-22T09:58:25.010Z,99961.13
2023-06-22T09:59:26.843Z,99956.22
2023-06-22T10:00:29.258Z,99960.97
2023-06-22T10:01:31.654Z,99965.09
2023-06-22T10:02:33.676Z,99955.41
2023-06-22T10:03:36.394Z,99966.41
2023-06-22T10:04:38.772Z,99965.06
2023-06-22T10:05:40.840Z,99962.59
2023-06-22T10:06:43.020Z,99956.88
2023-06-22T10:07:45.753Z,99954.00
2023-06-22T10:08:49.364Z,99956.44
2023-06-22T10:09:51.233Z,99954.25
2023-06-22T10:10:54.030Z,99956.44
2023-06-22T10:11:56.452Z,99957.94
2023-06-22T10:13:04.025Z,99962.53
2023-06-22T10:14:05.931Z,99957.41
2023-06-22T10:15:08.202Z,99957.56
2023-06-22T10:16:10.512Z,99956.00
2023-06-22T10:17:12.714Z,99957.06
2023-06-22T10:18:14.633Z,99955.72
2023-06-22T10:19:16.587Z,99958.00
2023-06-22T10:20:19.496Z,99950.66
2023-06-22T10:21:21.850Z,99961.41
2023-06-22T10:22:24.509Z,99956.56
2023-06-22T10:23:26.445Z,99958.53
2023-06-22T10:24:28.262Z,99960.75
2023-06-22T10:25:30.245Z,99950.75
2023-06-22T10:26:32.953Z,99955.16
2023-06-22T10:27:35.370Z,99950.13
2023-06-22T10:28:37.278Z,99956.63
2023-06-22T10:29:39.163Z,99951.59
2023-06-22T10:30:44.853Z,99953.31
2023-06-22T10:31:46.825Z,99950.59
2023-06-22T10:32:49.095Z,99948.78
2023-06-22T10:33:51.053Z,99949.53
2023-06-22T10:34:52.981Z,99953.28
2023-06-22T10:35:54.802Z,99956.00
2023-06-22T10:36:56.764Z,99947.16
2023-06-22T10:37:59.006Z,99945.31
2023-06-22T10:39:02.681Z,99943.03
2023-06-22T10:40:05.494Z,99945.56
2023-06-22T10:41:07.414Z,99940.53
2023-06-22T10:42:09.281Z,99938.31
2023-06-22T10:43:11.504Z,99945.06
2023-06-22T10:44:13.514Z,99943.00
2023-06-22T10:45:15.432Z,99942.69
2023-06-22T10:46:17.392Z,99937.56
2023-06-22T10:47:19.452Z,99944.81
2023-06-22T10:48:21.646Z,99942.47
2023-06-22T10:49:23.535Z,99944.50
2023-06-22T10:50:26.653Z,99944.72
2023-06-22T10:51:29.603Z,99944.84
2023-06-22T10:52:31.557Z,99945.47
2023-06-22T10:53:33.697Z,99933.72
2023-06-22T10:54:36.859Z,99940.91
2023-06-22T10:55:55.366Z,99934.31
2023-06-22T10:56:59.126Z,99932.50
2023-06-22T10:58:01.034Z,99940.34
2023-06-22T10:59:03.344Z,99929.16
2023-06-22T11:00:07.634Z,99934.09
2023-06-22T11:01:12.816Z,99929.75
2023-06-22T11:02:21.878Z,99929.22
2023-06-22T11:03:23.928Z,99925.25
2023-06-22T11:04:26.546Z,99927.72
2023-06-22T11:05:28.803Z,99927.97
2023-06-22T11:06:30.870Z,99927.00
2023-06-22T11:07:33.872Z,99925.00
2023-06-22T11:08:35.733Z,99928.16
2023-06-22T11:09:39.259Z,99927.63
2023-06-22T11:10:41.596Z,99935.59
2023-06-22T11:11:43.417Z,99934.06
2023-06-22T11:12:45.556Z,99932.06
2023-06-22T11:13:47.516Z,99927.84
2023-06-22T11:14:52.536Z,99926.13
2023-06-22T11:15:54.583Z,99924.87
2023-06-22T11:16:57.291Z,99922.81
2023-06-22T11:17:59.255Z,99926.84
2023-06-22T11:19:01.151Z,99926.75
2023-06-22T11:20:10.861Z,99918.19
2023-06-22T11:21:12.793Z,99919.41
2023-06-22T11:22:14.676Z,99922.56
2023-06-22T11:23:16.561Z,99916.59
2023-06-22T11:24:18.950Z,99916.41
2023-06-22T11:25:21.104Z,99922.19
2023-06-22T11:26:22.974Z,99919.81
2023-06-22T11:27:24.806Z,99919.94
2023-06-22T11:28:26.621Z,99915.59
2023-06-22T11:29:37.484Z,99919.94
2023-06-22T11:30:40.513Z,99917.87
2023-06-22T11:31:43.940Z,99915.59
2023-06-22T11:32:46.019Z,99921.75
2023-06-22T11:33:48.985Z,99924.87
2023-06-22T11:34:51.183Z,99913.25
2023-06-22T11:35:53.395Z,99921.69
2023-06-22T11:36:55.269Z,99917.84
2023-06-22T11:37:57.356Z,99910.97
2023-06-22T11:38:59.457Z,99920.78
2023-06-22T11:41:08.774Z,99918.19
2023-06-22T11:42:11.665Z,99917.81
2023-06-22T11:43:13.711Z,99922.09
2023-06-22T11:44:15.555Z,99921.56
2023-06-22T11:45:18.588Z,99918.03
2023-06-22T11:46:20.918Z,99922.78
2023-06-22T11:47:22.835Z,99918.56
2023-06-22T11:48:27.824Z,99912.25
2023-06-22T11:49:29.696Z,99909.03
2023-06-22T11:50:35.468Z,99913.25
2023-06-22T11:51:37.654Z,99912.91
2023-06-22T11:52:39.542Z,99910.16
2023-06-22T11:53:41.447Z,99907.16
2023-06-22T11:54:43.356Z,99905.78
2023-06-22T11:55:45.625Z,99904.69
2023-06-22T11:56:48.015Z,99899.31
2023-06-22T11:57:57.116Z,99897.81
2023-06-22T11:58:59.311Z,99904.59
2023-06-22T12:00:01.164Z,99893.66
2023-06-22T12:01:03.005Z,99893.84
2023-06-22T12:02:06.672Z,99903.78
2023-06-22T12:03:09.150Z,99903.63
2023-06-22T12:04:12.254Z,99904.88
2023-06-22T12:05:14.166Z,99904.66
2023-06-22T12:06:16.535Z,99899.91
2023-06-22T12:07:18.693Z,99902.84
2023-06-22T12:08:20.874Z,99889.91
2023-06-22T12:09:22.719Z,99894.06
2023-06-22T12:10:25.947Z,99890.53
2023-06-22T12:11:28.061Z,99894.47
2023-06-22T12:12:30.674Z,99892.78
2023-06-22T12:13:32.543Z,99892.47
2023-06-22T12:14:35.372Z,99886.03
2023-06-22T12:15:37.283Z,99887.41
2023-06-22T12:16:39.655Z,99887.50
2023-06-22T12:17:42.046Z,99889.47
2023-06-22T12:18:44.066Z,99881.81